Time;durP1;ratioP1;P1;durP2;ratioP2;P2;SDS_P1;SDS_P2;PMS_P1;PMS_P2;Temp;Humidity;BMP_temperature;BMP_pressure;BME280_temperature;BME280_humidity;BME280_pressure;Samples;Min_cycle;Max_cycle;Signal;HPM_P1;HPM_P2
2024/03/09 00:00:48;;;;;;;24.83;15.43;;;10.10;52.20;11.70;100351.00;;;;5028710;28;20665;-74
2024/03/09 00:03:15;;;;;;;24.02;15.00;;;10.10;52.20;11.70;100352.00;;;;5012104;28;20230;-77
2024/03/09 00:05:45;;;;;;;22.05;14.23;;;10.10;52.20;11.70;100354.00;;;;5011259;28;20243;-76
2024/03/09 00:08:17;;;;;;;22.38;14.85;;;10.10;52.20;11.70;100350.00;;;;5010712;28;20197;-75
2024/03/09 00:10:49;;;;;;;21.65;14.60;;;10.10;52.20;11.70;100354.00;;;;5020943;28;20223;-76
2024/03/09 00:13:17;;;;;;;22.33;15.02;;;10.10;52.20;11.70;100342.00;;;;5011259;28;20284;-75
2024/03/09 00:15:45;;;;;;;19.48;13.25;;;10.10;52.30;11.70;100345.00;;;;5010941;28;20847;-75
2024/03/09 00:18:12;;;;;;;21.88;15.00;;;10.10;52.20;11.70;100339.00;;;;5011593;28;20189;-75
2024/03/09 00:20:39;;;;;;;22.67;14.60;;;10.10;52.30;11.70;100341.00;;;;5012030;28;20650;-76
2024/03/09 00:23:08;;;;;;;22.83;14.82;;;10.10;52.30;11.70;100333.00;;;;5010636;28;20204;-75
2024/03/09 00:25:35;;;;;;;20.73;14.35;;;10.10;52.30;11.70;100338.00;;;;5012285;28;20211;-76
2024/03/09 00:28:03;;;;;;;22.15;14.98;;;10.10;52.30;11.70;100338.00;;;;5018036;28;20255;-76
2024/03/09 00:30:31;;;;;;;22.80;14.40;;;10.10;52.40;11.70;100333.00;;;;5009707;28;20200;-74
2024/03/09 00:33:00;;;;;;;21.67;14.05;;;10.10;52.30;11.60;100333.00;;;;5009434;28;20216;-76
2024/03/09 00:35:30;;;;;;;20.27;13.68;;;10.10;52.40;11.70;100325.00;;;;5010636;28;20280;-77
2024/03/09 00:38:00;;;;;;;22.52;14.55;;;10.10;52.40;11.70;100318.00;;;;5009164;28;20231;-76
2024/03/09 00:40:29;;;;;;;21.38;14.30;;;10.00;52.40;11.70;100309.00;;;;5009874;28;20655;-75
2024/03/09 00:42:58;;;;;;;24.27;15.40;;;10.00;52.40;11.60;100318.00;;;;5011896;28;20197;-76
2024/03/09 00:45:25;;;;;;;22.15;14.18;;;10.00;52.40;11.60;100315.00;;;;5013218;28;20231;-75
2024/03/09 00:47:54;;;;;;;32.88;15.35;;;10.00;52.40;11.60;100304.00;;;;5014287;28;20203;-76
2024/03/09 00:50:24;;;;;;;23.42;15.48;;;10.00;52.50;11.60;100299.00;;;;5019695;28;20284;-77
2024/03/09 00:52:51;;;;;;;21.23;13.38;;;10.00;52.50;11.60;100300.00;;;;5034393;28;20236;-77
2024/03/09 00:55:19;;;;;;;21.50;13.73;;;9.90;52.40;11.60;100303.00;;;;5024445;28;20201;-75
2024/03/09 00:57:50;;;;;;;21.58;14.20;;;9.90;52.50;11.50;100298.00;;;;5013695;28;20207;-76
2024/03/09 01:00:18;;;;;;;22.65;14.65;;;9.90;52.50;11.50;100294.00;;;;5015112;28;20284;-77
2024/03/09 01:02:49;;;;;;;20.27;13.90;;;9.90;52.60;11.50;100296.00;;;;5013761;28;20228;-77
2024/03/09 01:05:19;;;;;;;23.55;15.27;;;9.80;52.50;11.50;100306.00;;;;5014166;28;20263;-76
2024/03/09 01:07:46;;;;;;;26.52;15.50;;;9.80;52.60;11.40;100303.00;;;;5011103;28;20201;-75
2024/03/09 01:10:14;;;;;;;21.48;14.60;;;9.80;52.70;11.40;100288.00;;;;5014876;28;20271;-76
2024/03/09 01:12:41;;;;;;;20.75;15.27;;;9.80;52.70;11.40;100294.00;;;;5014345;28;20200;-75
2024/03/09 01:15:10;;;;;;;22.85;14.50;;;9.80;52.80;11.40;100290.00;;;;5014087;28;20228;-75
2024/03/09 01:17:38;;;;;;;23.00;14.40;;;9.70;52.70;11.40;100292.00;;;;5015276;28;20208;-77
2024/03/09 01:20:07;;;;;;;22.30;14.25;;;9.70;52.70;11.30;100290.00;;;;5013610;28;20201;-75
2024/03/09 01:22:37;;;;;;;20.88;14.40;;;9.70;52.80;11.30;100275.00;;;;5011741;28;20201;-77
2024/03/09 01:25:06;;;;;;;21.75;14.48;;;9.70;52.80;11.30;100282.00;;;;5002764;28;20227;-76
2024/03/09 01:27:33;;;;;;;20.50;14.27;;;9.70;52.90;11.30;100278.00;;;;5014703;28;20307;-76
2024/03/09 01:30:00;;;;;;;21.38;14.02;;;9.60;52.80;11.30;100275.00;;;;5018779;28;20291;-76
2024/03/09 01:32:28;;;;;;;23.13;15.00;;;9.60;52.90;11.30;100270.00;;;;5033582;28;20216;-76
2024/03/09 01:34:56;;;;;;;22.85;14.32;;;9.60;52.90;11.20;100266.00;;;;5032404;28;20208;-77
2024/03/09 01:37:23;;;;;;;21.20;14.40;;;9.60;53.00;11.20;100272.00;;;;5009773;28;20208;-76
2024/03/09 01:39:51;;;;;;;20.85;14.23;;;9.60;53.10;11.20;100266.00;;;;5030295;28;20203;-73
2024/03/09 01:42:19;;;;;;;21.98;14.68;;;9.60;53.10;11.20;100262.00;;;;5019349;28;20203;-76
2024/03/09 01:44:48;;;;;;;20.80;13.77;;;9.50;53.10;11.20;100261.00;;;;5033712;28;20247;-76
2024/03/09 01:47:17;;;;;;;19.70;12.68;;;9.60;53.10;11.10;100260.00;;;;5013964;28;20255;-75
2024/03/09 01:49:46;;;;;;;20.40;13.77;;;9.50;53.10;11.20;100249.00;;;;5008068;28;20196;-77
2024/03/09 01:52:14;;;;;;;24.40;15.55;;;9.50;53.10;11.10;100247.00;;;;4998846;28;20577;-75
2024/03/09 01:54:43;;;;;;;23.08;14.18;;;9.50;53.20;11.10;100243.00;;;;5014353;28;20192;-75
2024/03/09 01:57:14;;;;;;;24.08;15.30;;;9.50;53.20;11.10;100250.00;;;;5008906;28;20208;-73
2024/03/09 01:59:46;;;;;;;23.33;14.93;;;9.40;53.20;11.10;100243.00;;;;5013357;28;20196;-77
2024/03/09 02:02:15;;;;;;;22.30;13.57;;;9.40;53.20;11.10;100231.00;;;;5018571;28;20192;-75
2024/03/09 02:04:44;;;;;;;21.42;14.32;;;9.50;53.30;11.10;100233.00;;;;5013865;28;20235;-75
2024/03/09 02:07:14;;;;;;;22.02;13.93;;;9.40;53.30;11.10;100234.00;;;;5013302;28;20201;-74
2024/03/09 02:09:42;;;;;;;21.80;14.05;;;9.40;53.40;11.00;100233.00;;;;5014596;28;20229;-76
2024/03/09 02:12:12;;;;;;;22.23;14.70;;;9.40;53.40;11.00;100226.00;;;;5021807;28;20296;-76
2024/03/09 02:14:41;;;;;;;21.23;13.73;;;9.40;53.50;11.00;100226.00;;;;5012333;28;20193;-76
2024/03/09 02:17:08;;;;;;;23.20;15.15;;;9.30;53.40;11.00;100211.00;;;;5028533;28;20276;-76
2024/03/09 02:19:38;;;;;;;24.15;14.70;;;9.30;53.40;11.00;100219.00;;;;5032591;28;20279;-77
2024/03/09 02:22:06;;;;;;;20.80;13.18;;;9.30;53.40;11.00;100217.00;;;;5022403;28;20192;-77
2024/03/09 02:24:40;;;;;;;21.98;14.07;;;9.30;53.50;10.90;100213.00;;;;5013278;28;20213;-76
2024/03/09 02:27:09;;;;;;;23.52;15.48;;;9.30;53.50;11.00;100213.00;;;;5003167;28;20196;-77
2024/03/09 02:29:36;;;;;;;22.60;14.70;;;9.30;53.60;10.90;100203.00;;;;5021828;28;20275;-75
2024/03/09 02:32:04;;;;;;;21.65;14.23;;;9.30;53.60;10.90;100202.00;;;;5012552;28;20676;-77
2024/03/09 02:34:31;;;;;;;20.17;14.43;;;9.30;53.60;10.90;100203.00;;;;5022197;28;20211;-76
2024/03/09 02:36:58;;;;;;;22.55;13.93;;;9.20;53.70;10.90;100205.00;;;;5031076;28;20295;-76
2024/03/09 02:39:27;;;;;;;21.00;13.45;;;9.30;53.80;10.90;100205.00;;;;5016097;28;20203;-76
2024/03/09 02:41:56;;;;;;;21.33;14.13;;;9.30;53.80;10.90;100194.00;;;;5010067;28;20201;-77
2024/03/09 02:44:26;;;;;;;23.98;14.50;;;9.30;53.80;10.90;100185.00;;;;5032098;28;20594;-77
2024/03/09 02:46:53;;;;;;;21.25;14.07;;;9.20;53.80;10.90;100188.00;;;;5019519;28;20631;-76
2024/03/09 02:49:20;;;;;;;20.00;13.77;;;9.20;53.80;10.90;100188.00;;;;4999005;28;20204;-76
2024/03/09 02:51:48;;;;;;;22.90;14.23;;;9.20;53.80;10.90;100180.00;;;;5013044;28;20193;-75
2024/03/09 02:54:15;;;;;;;20.23;14.25;;;9.20;53.80;10.90;100181.00;;;;5007825;28;20626;-77
2024/03/09 02:56:42;;;;;;;20.55;13.57;;;9.20;53.90;10.90;100181.00;;;;5011491;28;20229;-76
2024/03/09 02:59:10;;;;;;;19.88;13.68;;;9.20;53.90;10.90;100172.00;;;;5017474;28;20192;-76
2024/03/09 03:01:38;;;;;;;21.83;13.70;;;9.20;54.00;10.90;100172.00;;;;5029536;28;20577;-76
2024/03/09 03:04:04;;;;;;;21.60;14.45;;;9.20;53.90;10.90;100174.00;;;;5012578;28;20275;-76
2024/03/09 03:06:32;;;;;;;19.63;13.70;;;9.20;54.00;10.90;100178.00;;;;5011860;28;20205;-74
2024/03/09 03:09:07;;;;;;;23.23;14.75;;;9.20;54.00;10.90;100177.00;;;;5010963;28;20643;-77
2024/03/09 03:11:37;;;;;;;21.65;13.73;;;9.20;54.00;10.90;100176.00;;;;5010928;28;20872;-76
2024/03/09 03:14:04;;;;;;;22.77;13.88;;;9.20;54.00;10.90;100174.00;;;;5008399;28;20203;-77
2024/03/09 03:16:35;;;;;;;18.65;12.88;;;9.20;54.00;10.90;100172.00;;;;5012765;28;20201;-76
2024/03/09 03:19:07;;;;;;;21.48;14.32;;;9.20;54.00;10.90;100176.00;;;;5010914;28;20224;-78
2024/03/09 03:21:35;;;;;;;23.13;13.75;;;9.20;54.10;10.90;100171.00;;;;5011725;28;20236;-76
2024/03/09 03:24:03;;;;;;;20.42;13.77;;;9.20;54.10;10.90;100171.00;;;;5012070;28;20633;-75
2024/03/09 03:26:31;;;;;;;20.02;13.35;;;9.20;54.00;10.90;100177.00;;;;5012277;28;20201;-76
2024/03/09 03:29:00;;;;;;;23.15;15.02;;;9.20;54.10;10.90;100169.00;;;;5011536;28;20205;-76
2024/03/09 03:31:29;;;;;;;20.83;13.95;;;9.20;54.10;10.90;100168.00;;;;5012346;28;20228;-76
2024/03/09 03:33:57;;;;;;;19.35;12.48;;;9.20;54.10;10.90;100165.00;;;;5031186;28;20411;-75
2024/03/09 03:36:26;;;;;;;20.10;13.70;;;9.20;54.20;10.90;100167.00;;;;5011856;28;20201;-75
2024/03/09 03:38:54;;;;;;;22.05;13.68;;;9.20;54.30;10.90;100160.00;;;;5012329;28;20197;-77
2024/03/09 03:41:22;;;;;;;21.00;12.65;;;9.20;54.30;10.90;100166.00;;;;5011591;28;20193;-76
2024/03/09 03:43:49;;;;;;;23.23;14.60;;;9.20;54.20;10.90;100166.00;;;;5012328;28;20193;-76
2024/03/09 03:46:16;;;;;;;19.75;13.43;;;9.20;54.30;10.90;100163.00;;;;5011468;28;20224;-76
2024/03/09 03:48:45;;;;;;;20.23;13.88;;;9.20;54.30;10.90;100165.00;;;;5011595;28;20193;-76
2024/03/09 03:51:13;;;;;;;19.85;13.32;;;9.20;54.30;11.00;100158.00;;;;5012150;28;20221;-77
2024/03/09 03:53:42;;;;;;;20.40;13.88;;;9.20;54.30;10.90;100153.00;;;;5012102;28;20283;-77
2024/03/09 03:56:10;;;;;;;21.35;14.18;;;9.20;54.30;11.00;100160.00;;;;5011084;28;20605;-76
2024/03/09 03:58:38;;;;;;;19.67;12.90;;;9.20;54.30;11.00;100160.00;;;;5011923;28;20284;-76
2024/03/09 04:01:06;;;;;;;20.48;13.27;;;9.30;54.40;11.00;100161.00;;;;5011773;28;20200;-75
2024/03/09 04:03:37;;;;;;;20.10;13.82;;;9.30;54.30;11.00;100154.00;;;;5011717;28;20203;-75
2024/03/09 04:06:07;;;;;;;20.35;13.77;;;9.30;54.40;11.00;100146.00;;;;5010223;28;20229;-77
2024/03/09 04:08:34;;;;;;;19.83;13.02;;;9.30;54.40;11.10;100146.00;;;;5023254;28;20196;-76
2024/03/09 04:11:04;;;;;;;21.38;13.18;;;9.30;54.40;11.00;100146.00;;;;5005318;28;20199;-76
2024/03/09 04:13:31;;;;;;;19.58;12.77;;;9.30;54.40;11.10;100143.00;;;;5010852;28;20204;-76
2024/03/09 04:16:01;;;;;;;21.92;13.23;;;9.30;54.40;11.10;100134.00;;;;5010500;28;20205;-75
2024/03/09 04:18:30;;;;;;;18.98;12.93;;;9.40;54.40;11.10;100144.00;;;;5013187;28;20201;-76
2024/03/09 04:20:57;;;;;;;19.35;12.68;;;9.40;54.40;11.10;100138.00;;;;5014844;28;20217;-77
2024/03/09 04:23:24;;;;;;;20.13;13.15;;;9.40;54.40;11.10;100129.00;;;;5015846;28;20627;-76
2024/03/09 04:25:52;;;;;;;20.05;13.70;;;9.40;54.30;11.10;100129.00;;;;5002786;28;20232;-76
2024/03/09 04:28:21;;;;;;;19.80;13.75;;;9.40;54.40;11.10;100132.00;;;;5025442;28;20266;-77
2024/03/09 04:30:49;;;;;;;21.83;14.35;;;9.40;54.30;11.10;100138.00;;;;5028487;28;20200;-76
2024/03/09 04:33:17;;;;;;;19.08;13.30;;;9.40;54.40;11.10;100131.00;;;;5015312;28;20201;-77
2024/03/09 04:35:47;;;;;;;20.58;13.25;;;9.40;54.30;11.10;100120.00;;;;5015273;28;20284;-76
2024/03/09 04:38:16;;;;;;;19.85;13.93;;;9.40;54.30;11.10;100125.00;;;;5019343;28;20204;-76
2024/03/09 04:40:43;;;;;;;22.60;14.40;;;9.40;54.30;11.10;100118.00;;;;5014565;28;20243;-76
2024/03/09 04:43:13;;;;;;;21.48;14.05;;;9.40;54.80;11.10;100116.00;;;;5018527;28;20196;-76
2024/03/09 04:45:41;;;;;;;19.35;13.18;;;9.40;54.30;11.10;100117.00;;;;5015243;28;20235;-76
2024/03/09 04:48:09;;;;;;;21.15;14.20;;;9.40;54.30;11.10;100116.00;;;;5014923;28;20212;-77
2024/03/09 04:50:38;;;;;;;20.27;13.90;;;9.40;54.30;11.10;100116.00;;;;5013553;28;20259;-76
2024/03/09 04:53:06;;;;;;;19.10;12.82;;;9.40;54.30;11.10;100122.00;;;;5015490;28;20667;-77
2024/03/09 04:55:35;;;;;;;20.50;12.80;;;9.40;54.30;11.10;100127.00;;;;5022592;28;20665;-76
2024/03/09 04:58:04;;;;;;;22.35;14.15;;;9.40;54.30;11.10;100120.00;;;;5001741;28;20197;-77
2024/03/09 05:00:31;;;;;;;19.45;13.27;;;9.40;54.30;11.10;100116.00;;;;5014877;28;20229;-75
2024/03/09 05:03:00;;;;;;;19.98;12.70;;;9.40;54.30;11.10;100115.00;;;;5013813;28;20275;-78
2024/03/09 05:05:31;;;;;;;20.85;13.27;;;9.40;54.30;11.10;100114.00;;;;5021139;28;20220;-77
2024/03/09 05:07:58;;;;;;;21.48;14.25;;;9.40;54.30;11.10;100113.00;;;;5013796;28;20263;-77
2024/03/09 05:10:26;;;;;;;21.48;12.90;;;9.40;54.40;11.10;100114.00;;;;5014355;28;20303;-76
2024/03/09 05:12:54;;;;;;;22.30;14.68;;;9.30;54.30;11.10;100106.00;;;;5013422;28;20197;-76
2024/03/09 05:15:23;;;;;;;21.48;14.20;;;9.30;54.30;11.10;100105.00;;;;5013921;28;20595;-77
2024/03/09 05:17:50;;;;;;;17.48;12.25;;;9.40;54.40;11.00;100108.00;;;;5011211;28;20283;-77
2024/03/09 05:20:22;;;;;;;21.02;13.85;;;9.30;54.40;11.00;100119.00;;;;5013087;28;20672;-76
2024/03/09 05:22:49;;;;;;;21.45;14.18;;;9.30;54.40;11.00;100112.00;;;;5014272;28;20200;-77
2024/03/09 05:25:17;;;;;;;19.73;13.50;;;9.30;54.40;11.00;100112.00;;;;5012455;28;20341;-77
2024/03/09 05:27:44;;;;;;;20.55;13.60;;;9.30;54.40;11.00;100108.00;;;;5012542;28;20205;-77
2024/03/09 05:30:15;;;;;;;19.85;13.05;;;9.20;54.40;11.00;100100.00;;;;5012366;28;20204;-76
2024/03/09 05:32:49;;;;;;;18.98;12.82;;;9.30;54.50;11.10;100095.00;;;;5025197;28;20291;-76
2024/03/09 05:35:20;;;;;;;21.85;14.35;;;9.30;54.50;11.00;100094.00;;;;5016405;28;20248;-74
2024/03/09 05:37:49;;;;;;;19.38;12.20;;;9.20;54.50;11.00;100089.00;;;;5012149;28;20204;-77
2024/03/09 05:40:17;;;;;;;20.63;13.48;;;9.30;54.60;11.00;100087.00;;;;5020452;28;20653;-76
2024/03/09 05:42:45;;;;;;;19.27;13.27;;;9.20;54.50;11.00;100086.00;;;;5026706;28;20226;-76
2024/03/09 05:45:18;;;;;;;19.77;13.63;;;9.30;54.60;11.00;100091.00;;;;5003044;28;20324;-76
2024/03/09 05:47:47;;;;;;;18.45;12.02;;;9.30;54.60;11.00;100088.00;;;;5022136;28;20201;-76
2024/03/09 05:50:15;;;;;;;17.90;12.35;;;9.30;54.60;11.10;100091.00;;;;5023118;28;20197;-77
2024/03/09 05:52:47;;;;;;;20.00;13.30;;;9.30;54.60;11.00;100089.00;;;;5012744;28;20201;-76
2024/03/09 05:55:16;;;;;;;18.13;12.82;;;9.30;54.60;11.00;100079.00;;;;5013859;28;20259;-76
2024/03/09 05:57:51;;;;;;;19.45;13.10;;;9.30;54.60;11.00;100081.00;;;;5011391;28;20259;-76
2024/03/09 06:00:24;;;;;;;19.33;12.88;;;9.30;54.60;11.00;100083.00;;;;5012837;28;20575;-77
2024/03/09 06:02:52;;;;;;;21.17;13.57;;;9.30;54.60;11.00;100083.00;;;;5013854;28;20193;-77
2024/03/09 06:05:21;;;;;;;22.40;14.00;;;9.30;54.60;11.00;100088.00;;;;5013593;28;20279;-76
2024/03/09 06:07:50;;;;;;;19.08;13.27;;;9.20;54.50;11.00;100080.00;;;;5016175;28;20216;-77
2024/03/09 06:10:18;;;;;;;21.27;14.35;;;9.20;54.50;11.00;100073.00;;;;5014131;28;20232;-77
2024/03/09 06:12:46;;;;;;;21.75;13.98;;;9.20;54.60;10.90;100073.00;;;;5011971;28;20225;-75
2024/03/09 06:15:15;;;;;;;20.10;13.50;;;9.20;54.60;10.90;100068.00;;;;5010017;28;20244;-74
2024/03/09 06:17:43;;;;;;;18.92;12.00;;;9.20;54.70;10.90;100070.00;;;;5037542;22;20225;-78
2024/03/09 06:20:13;;;;;;;19.80;12.30;;;9.20;54.70;10.90;100067.00;;;;5033477;28;20200;-78
2024/03/09 06:22:43;;;;;;;20.98;14.60;;;9.20;54.70;11.00;100066.00;;;;5034178;28;20833;-76
2024/03/09 06:25:20;;;;;;;21.55;13.95;;;9.20;54.80;11.00;100074.00;;;;5040810;28;21062;-77
2024/03/09 06:27:49;;;;;;;21.42;13.60;;;9.20;54.80;11.00;100063.00;;;;5020986;28;20641;-77
2024/03/09 06:30:16;;;;;;;19.30;12.60;;;9.20;54.90;11.00;100070.00;;;;5033143;28;20223;-76
2024/03/09 06:32:46;;;;;;;19.23;12.45;;;9.20;54.90;11.10;100059.00;;;;5033349;28;20220;-78
2024/03/09 06:35:14;;;;;;;19.83;13.07;;;9.30;55.00;11.10;100056.00;;;;5030660;28;20200;-78
2024/03/09 06:37:41;;;;;;;20.85;13.25;;;9.30;55.00;11.10;100060.00;;;;5031996;28;20610;-79
2024/03/09 06:40:12;;;;;;;20.38;14.13;;;9.30;55.00;11.10;100057.00;;;;5038123;28;20278;-77
2024/03/09 06:42:40;;;;;;;21.58;12.65;;;9.30;55.00;11.20;100059.00;;;;5038839;28;20196;-78
2024/03/09 06:45:11;;;;;;;19.10;13.98;;;9.40;55.00;11.20;100057.00;;;;5041512;28;20245;-78
2024/03/09 06:47:39;;;;;;;18.67;12.60;;;9.40;55.00;11.20;100053.00;;;;5053151;28;20541;-77
2024/03/09 06:50:09;;;;;;;18.95;12.48;;;9.40;55.00;11.20;100069.00;;;;5036997;28;20196;-78
2024/03/09 06:52:37;;;;;;;18.98;12.65;;;9.40;54.90;11.30;100085.00;;;;5033243;28;20192;-78
2024/03/09 06:55:05;;;;;;;19.15;13.32;;;9.50;54.90;11.30;100100.00;;;;5017218;28;20767;-78
2024/03/09 06:57:35;;;;;;;19.80;13.82;;;9.50;54.90;11.30;100101.00;;;;5033404;28;20295;-77
2024/03/09 07:00:11;;;;;;;18.98;13.38;;;9.50;54.90;11.30;100097.00;;;;5033066;28;20200;-78
2024/03/09 07:02:39;;;;;;;19.48;12.98;;;9.50;54.90;11.30;100097.00;;;;5031735;28;20677;-78
2024/03/09 07:05:09;;;;;;;20.25;12.40;;;9.60;54.80;11.40;100081.00;;;;5032660;28;20291;-78
2024/03/09 07:07:36;;;;;;;19.42;12.48;;;9.60;54.80;11.40;100085.00;;;;5032773;28;20196;-78
2024/03/09 07:10:07;;;;;;;19.13;12.68;;;9.60;54.80;11.40;100082.00;;;;5035934;28;20220;-78
2024/03/09 07:12:39;;;;;;;18.17;12.70;;;9.60;54.90;11.40;100088.00;;;;5011281;28;20197;-76
2024/03/09 07:15:14;;;;;;;15.70;10.48;;;9.60;54.90;11.50;100093.00;;;;5011757;28;20203;-75
2024/03/09 07:17:41;;;;;;;21.75;14.25;;;9.70;55.00;11.60;100093.00;;;;5025746;28;20285;-77
2024/03/09 07:20:13;;;;;;;20.10;13.60;;;9.70;55.00;11.60;100089.00;;;;5021016;28;20197;-77
2024/03/09 07:22:41;;;;;;;22.33;13.60;;;9.70;54.90;11.60;100089.00;;;;5030789;28;20203;-80
2024/03/09 07:25:10;;;;;;;20.65;12.77;;;9.80;54.90;11.60;100091.00;;;;5030312;28;20203;-78
2024/03/09 07:27:40;;;;;;;18.05;12.00;;;9.80;55.40;11.60;100089.00;;;;5031815;28;20258;-79
2024/03/09 07:30:10;;;;;;;16.77;11.93;;;9.80;54.80;11.70;100083.00;;;;5022411;28;20196;-76
2024/03/09 07:32:37;;;;;;;18.70;11.55;;;9.80;54.70;11.70;100089.00;;;;5017206;28;20197;-79
2024/03/09 07:35:14;;;;;;;17.40;11.80;;;9.90;54.80;11.70;100084.00;;;;5012023;28;20200;-78
2024/03/09 07:37:43;;;;;;;18.20;12.55;;;9.90;54.70;11.80;100081.00;;;;5012675;28;20196;-79
2024/03/09 07:40:12;;;;;;;18.40;12.32;;;9.90;54.70;11.80;100083.00;;;;5011150;28;20197;-79
2024/03/09 07:42:40;;;;;;;16.25;11.23;;;10.00;54.80;11.90;100078.00;;;;5018925;28;20650;-77
2024/03/09 07:45:13;;;;;;;16.65;11.27;;;10.00;54.80;11.90;100081.00;;;;5031871;28;20299;-78
2024/03/09 07:47:42;;;;;;;19.02;12.23;;;10.00;54.70;11.90;100073.00;;;;5016860;28;20204;-80
2024/03/09 07:50:14;;;;;;;15.98;11.10;;;10.10;54.70;12.00;100070.00;;;;5031969;28;20204;-78
2024/03/09 07:52:43;;;;;;;16.55;10.98;;;10.10;54.80;12.00;100082.00;;;;5031156;28;20188;-78
2024/03/09 07:55:11;;;;;;;17.25;11.57;;;10.20;54.70;12.10;100086.00;;;;5032026;28;20199;-78
2024/03/09 07:57:40;;;;;;;17.30;12.43;;;10.20;54.60;12.10;100084.00;;;;5032402;28;20185;-80
2024/03/09 08:00:10;;;;;;;15.82;11.52;;;10.30;55.10;12.20;100093.00;;;;5031322;28;20196;-79
2024/03/09 08:02:37;;;;;;;18.42;12.18;;;10.30;54.50;12.20;100088.00;;;;5030751;28;20251;-78
2024/03/09 08:05:07;;;;;;;17.58;11.43;;;10.40;54.50;12.30;100085.00;;;;5023042;28;20200;-79
2024/03/09 08:07:36;;;;;;;18.45;12.30;;;10.40;54.50;12.30;100077.00;;;;5026201;28;20220;-76
2024/03/09 08:10:06;;;;;;;16.13;11.88;;;10.40;54.40;12.40;100067.00;;;;5002545;28;20224;-79
2024/03/09 08:12:34;;;;;;;17.50;11.70;;;10.50;54.50;12.40;100079.00;;;;5011181;28;20193;-76
2024/03/09 08:15:04;;;;;;;18.17;12.68;;;10.50;54.50;12.40;100080.00;;;;5010839;28;20197;-79
2024/03/09 08:17:32;;;;;;;16.27;12.20;;;10.60;55.10;12.50;100067.00;;;;5007801;28;20225;-80
2024/03/09 08:20:00;;;;;;;19.88;11.98;;;10.60;54.30;12.50;100074.00;;;;5007822;28;20201;-79
2024/03/09 08:22:29;;;;;;;17.83;12.45;;;10.60;54.20;12.50;100075.00;;;;5010821;28;20231;-81
2024/03/09 08:24:56;;;;;;;17.15;11.63;;;10.70;54.30;12.60;100073.00;;;;5031724;28;20211;-83
2024/03/09 08:27:23;;;;;;;18.52;11.98;;;10.70;54.20;12.60;100069.00;;;;5020452;28;20221;-78
2024/03/09 08:29:50;;;;;;;16.70;10.95;;;10.70;54.30;12.70;100064.00;;;;5010260;28;20203;-81
2024/03/09 08:32:19;;;;;;;18.02;11.40;;;10.80;54.40;12.70;100066.00;;;;5011481;28;20204;-79
2024/03/09 08:34:46;;;;;;;19.23;12.63;;;10.80;54.40;12.80;100064.00;;;;5009601;28;20267;-80
2024/03/09 08:37:14;;;;;;;15.90;11.60;;;10.90;54.40;12.90;100063.00;;;;5011561;28;20201;-79
2024/03/09 08:39:41;;;;;;;18.45;12.80;;;11.00;54.50;13.00;100062.00;;;;5022573;28;20292;-79
2024/03/09 08:42:09;;;;;;;16.35;12.00;;;11.10;54.40;13.10;100058.00;;;;5013729;28;20371;-80
2024/03/09 08:44:37;;;;;;;16.67;11.23;;;11.20;54.40;13.20;100060.00;;;;5011289;28;20671;-82
2024/03/09 08:47:05;;;;;;;17.13;11.05;;;11.30;54.40;13.30;100057.00;;;;5010371;28;20757;-81
2024/03/09 08:49:35;;;;;;;17.60;11.27;;;11.30;54.30;13.40;100058.00;;;;5010485;28;20240;-79
2024/03/09 08:52:02;;;;;;;16.88;10.88;;;11.40;55.00;13.50;100046.00;;;;5010266;28;20274;-80
2024/03/09 08:54:33;;;;;;;16.98;11.88;;;11.60;54.40;13.60;100055.00;;;;5009573;28;20197;-77
2024/03/09 08:57:00;;;;;;;17.65;11.90;;;11.60;54.30;13.70;100047.00;;;;5011496;28;20228;-82
2024/03/09 08:59:28;;;;;;;16.67;11.13;;;11.70;54.10;13.80;100040.00;;;;5010659;28;20290;-80
2024/03/09 09:01:55;;;;;;;16.33;11.00;;;11.80;54.00;13.80;100033.00;;;;5008610;28;20209;-79
2024/03/09 09:04:23;;;;;;;16.30;11.73;;;11.90;53.90;13.90;100035.00;;;;5013272;28;20200;-77
2024/03/09 09:06:51;;;;;;;16.88;11.65;;;12.00;53.80;14.00;100049.00;;;;5015003;28;20220;-80
2024/03/09 09:09:24;;;;;;;15.63;11.68;;;12.10;54.40;14.10;100049.00;;;;5014649;28;20312;-78
2024/03/09 09:11:52;;;;;;;14.57;10.48;;;12.10;53.70;14.10;100043.00;;;;5013515;28;20690;-82
2024/03/09 09:14:20;;;;;;;14.25;10.07;;;12.20;53.70;14.20;100038.00;;;;5031341;28;20216;-81
2024/03/09 09:16:47;;;;;;;14.98;10.90;;;12.30;53.80;14.30;100046.00;;;;5034456;28;20232;-81
2024/03/09 09:19:14;;;;;;;14.13;10.70;;;12.40;53.70;14.40;100052.00;;;;5014890;28;20197;-78
2024/03/09 09:21:41;;;;;;;15.75;11.45;;;12.50;53.70;14.40;100051.00;;;;5011643;28;20671;-80
2024/03/09 09:24:10;;;;;;;17.50;12.13;;;12.60;53.50;14.50;100055.00;;;;5014551;28;20287;-77
2024/03/09 09:26:37;;;;;;;16.10;11.55;;;12.70;53.50;14.60;100045.00;;;;5014811;28;20311;-81
2024/03/09 09:29:04;;;;;;;16.10;12.00;;;12.70;53.30;14.60;100046.00;;;;5013199;28;20211;-82
2024/03/09 09:31:33;;;;;;;19.67;12.82;;;12.80;53.20;14.60;100055.00;;;;5015189;28;20207;-80
2024/03/09 09:34:01;;;;;;;16.85;12.00;;;12.80;53.10;14.70;100052.00;;;;4999344;28;20201;-79
2024/03/09 09:36:29;;;;;;;17.30;12.73;;;12.90;53.00;14.70;100049.00;;;;4999215;28;20211;-78
2024/03/09 09:38:59;;;;;;;18.67;12.38;;;12.90;53.40;14.70;100039.00;;;;5013331;28;20256;-78
2024/03/09 09:41:28;;;;;;;18.13;12.35;;;13.00;52.90;14.80;100032.00;;;;5014591;28;20204;-77
2024/03/09 09:43:58;;;;;;;19.65;12.88;;;13.00;52.80;14.80;100032.00;;;;5014470;28;20582;-80
2024/03/09 09:46:27;;;;;;;15.95;11.93;;;13.10;52.90;14.90;100023.00;;;;5014845;28;20217;-77
2024/03/09 09:48:55;;;;;;;16.98;10.73;;;13.10;52.80;14.90;100017.00;;;;5013793;28;20284;-79
2024/03/09 09:51:23;;;;;;;15.32;11.65;;;13.10;52.90;15.00;100017.00;;;;4994152;28;20671;-79
2024/03/09 09:53:52;;;;;;;15.30;10.98;;;13.20;52.90;15.10;100014.00;;;;5007404;28;20724;-79
2024/03/09 09:56:21;;;;;;;16.25;11.95;;;13.30;53.00;15.10;100012.00;;;;5010173;28;20206;-78
2024/03/09 09:58:50;;;;;;;14.52;10.45;;;13.40;53.00;15.20;100008.00;;;;5012100;28;20693;-78
2024/03/09 10:01:20;;;;;;;14.65;10.85;;;13.40;52.90;15.30;100009.00;;;;5010716;28;20571;-79
2024/03/09 10:03:49;;;;;;;15.63;11.25;;;13.50;52.90;15.40;100016.00;;;;5016137;28;20251;-78
2024/03/09 10:06:21;;;;;;;15.73;10.63;;;13.60;52.90;15.50;100011.00;;;;5033787;28;20220;-77
2024/03/09 10:08:48;;;;;;;15.93;11.48;;;13.70;52.90;15.60;100006.00;;;;5030741;28;20658;-78
2024/03/09 10:11:16;;;;;;;15.32;10.65;;;13.80;52.90;15.70;100006.00;;;;5033154;28;20201;-78
2024/03/09 10:13:44;;;;;;;16.13;11.32;;;13.90;53.40;15.80;100013.00;;;;5033673;28;20279;-78
2024/03/09 10:16:16;;;;;;;15.63;11.23;;;14.00;52.80;15.80;100015.00;;;;5031949;28;20239;-78
2024/03/09 10:18:45;;;;;;;13.80;10.88;;;14.10;52.80;15.90;100007.00;;;;5030777;28;20258;-79
2024/03/09 10:21:14;;;;;;;15.55;11.70;;;14.20;52.70;16.00;99999.00;;;;5020575;28;20207;-79
2024/03/09 10:23:43;;;;;;;15.55;11.40;;;14.30;52.60;16.10;100004.00;;;;5029978;28;20571;-80
2024/03/09 10:26:10;;;;;;;15.52;10.88;;;14.40;52.40;16.20;99997.00;;;;5021450;28;20659;-79
2024/03/09 10:28:38;;;;;;;17.75;11.38;;;14.50;52.50;16.30;99984.00;;;;4997130;28;20189;-82
2024/03/09 10:31:07;;;;;;;14.95;10.70;;;14.60;52.40;16.40;99981.00;;;;5025777;28;20724;-80
2024/03/09 10:33:36;;;;;;;14.52;11.15;;;14.70;52.40;16.50;99974.00;;;;5013786;28;20241;-81
2024/03/09 10:36:04;;;;;;;14.98;11.18;;;14.80;52.40;16.50;99968.00;;;;5010355;28;20201;-78
2024/03/09 10:38:33;;;;;;;15.63;10.57;;;14.90;52.40;16.60;99966.00;;;;5014874;28;20284;-80
2024/03/09 10:41:07;;;;;;;13.93;10.48;;;14.90;52.20;16.70;99963.00;;;;5012293;28;20232;-81
2024/03/09 10:43:36;;;;;;;15.57;10.50;;;15.10;52.30;16.80;99962.00;;;;5012669;28;20280;-79